El Granada, CA

9:00 PM PDT on September 30, 2014 (GMT -0700)
Half Moon Bay | Change Station
CLOSE
Current Station
Airport
Location: Half Moon Bay,
Elevation: 66 ft
Nearby Weather Stations

Elev 66 ft 37.51 °N, 122.50 °W | Updated 1 hour ago

Clear
Clear
63 °F
Feels Like 63 °F
N
10
Wind Variable Wind from NNW

Today
High -- | Low -- °F
--% Chance of Precip.
Yesterday
High -- | Low -- °F
Precip. -- in
7:04 AM 6:54 PM
Waxing Crescent, 43% visible
Pressure 29.87 in
Visibility 5.0 miles
Clouds Mostly Cloudy 300 ft
Dew Point 55 °F
Humidity 77%
Rainfall 0.01 in
Snow Depth 0 in , 0 in , 0 in
UV 0 out of 12
Pollen 2.80 out of 12
Air Quality Not available.
Flu Activity Not available.
METAR KHAF 010255Z AUTO 34009KT 5SM HZ BKN003 17/13 A2987 RMK AO2

More Conditions Fewer Conditions

Pressure 29.87 in
Visibility 5.0 miles
Clouds Mostly Cloudy 300 ft
Dew Point 55 °F
Humidity 77%
Rainfall 0.01 in
Snow Depth 0 in , 0 in , 0 in
UV 0 out of 12
Pollen 2.80 out of 12
Air Quality Not available.
Flu Activity Not available.
METAR KHAF 010255Z AUTO 34009KT 5SM HZ BKN003 17/13 A2987 RMK AO2

More Conditions Fewer Conditions

10-Day Weather Forecast

Almanac

Astronomy

Sep. 30, 2014 Rise Set
Actual Time 7:04 AM PDT 6:54 PM PDT
Civil Twilight 6:38 AM PDT 7:20 PM PDT
Nautical Twilight 6:08 AM PDT 7:50 PM PDT
Astronomical Twilight 5:37 AM PDT 8:21 PM PDT
Moon 1:12 PM PDT (9/30) 11:35 PM PDT (9/30)
Length of Visible Light 12h 41m
Length of Day
11h 49m
Tomorrow will be 2m 23s shorter.
Waxing Crescent, 43% of the Moon is Illuminated
Oct 1
Waxing Crescent
Oct 1
First Quarter
Oct 8
Full
Oct 15
Last Quarter
Oct 23
New

Today's Extremes

State Highs State Lows

Community

WunderPhotos

Upload Photos

1,757,840 photos uploaded!

Nearby

Snow Depth

Station Depth Elevation
Adin Mountain 0 in 6200 ft
Independence Camp 0 in 7000 ft
Burnside Lake 0 in 8139 ft
Summit Meadow 1 in 9122 ft
Squaw Valley 0 in 8200 ft

Earthquake Activity

City Distance Mag. Time & Date
East Foothills, California 39 miles 2.6 3:34 PM PDT
2014-09-30
South Dos Palos, California 110 miles 2.7 3:08 PM PDT
2014-09-30
South Dos Palos, California 109 miles 2.5 9:18 PM PDT
2014-09-29
American Canyon, California 47 miles 2.5 12:17 AM PDT
2014-09-29
Minimum magnitude displayed is 2.5.

Coastal Water Temperatures

Place Temperature
Point Reyes, CA 61.0 °F
San Francisco, CA 64.0 °F
Richmond, CA 68.0 °F

Nearby Weather Stations